Decoded Metar for LTFJ (SABIHA GOKCEN in TURKEY) (IATA:N/A) | Meteo·Mobile Aviation Weather
aviador You're here:

LTFJ Decoded Metar

SABIHA GOKCEN in TURKEY
Report Time2019-08-19 03:20:00
UTC Time2019-08-19 03:43:05
Flight Rules vfr VFR
Wind070° at 04 kt
W.Decomp.*RWY 06: 4.0 kt HW 0.4 kt RCW
Visibility9999 m
Phenomena:N/A
Clouds:N/A
Expected CloudBase > 400 ft AGL from Temp-Dew spread
CeilingNone
Temp16°C (ISA +2)
Dew Point15°C (94% RH)
QNH1017 hPa
Density Alt607 ft
Elevation322 ft
Report Wrong Elevation
Raw Report
LTFJ 190320Z 07004KT CAVOK 16/15 Q1017 NOSIG=

Extra information for LTFJ:More info

Metar Taf Metar & Taf Last 4 Metars F.Rules Stats Wind Profile Meteogram Temp Stats Airport Information Weather charts Add Link Nearby VenuesMetar ALERT Operation Metar Decoded Social comments